TimeAEST,TemperatureF,Dew PointF,Humidity,Sea Level PressureIn,VisibilityMPH,Wind Direction,Wind SpeedMPH,Gust SpeedMPH,PrecipitationIn,Events,Conditions,WindDirDegrees,DateUTC
12:00 AM,71,68,87,30.09,,East,16.1,,,,,100,2013-08-16 14:00:00
12:00 AM,71.6,68.0,88,30.09,-9999.0,East,16.1,-,N/A,,Unknown,100,2013-08-16 14:00:00
12:30 AM,71.6,66.2,83,30.06,-9999.0,East,17.3,-,N/A,,Unknown,90,2013-08-16 14:30:00
1:00 AM,71.6,66.2,83,30.06,-9999.0,East,18.4,-,N/A,,Unknown,80,2013-08-16 15:00:00
1:30 AM,71.6,66.2,83,30.04,-9999.0,East,16.1,-,N/A,,Unknown,90,2013-08-16 15:30:00
2:00 AM,71.6,66.2,83,30.04,-9999.0,East,17.3,-,N/A,,Unknown,80,2013-08-16 16:00:00
2:30 AM,71.6,66.2,83,30.04,-9999.0,East,17.3,-,N/A,,Unknown,80,2013-08-16 16:30:00
3:00 AM,71,66,80,30.04,,East,18.4,,,,,90,2013-08-16 17:00:00
3:00 AM,71.6,66.2,83,30.04,-9999.0,East,18.4,-,N/A,,Unknown,90,2013-08-16 17:00:00
3:30 AM,71.6,66.2,83,30.04,-9999.0,East,18.4,-,N/A,,Unknown,90,2013-08-16 17:30:00
4:00 AM,69.8,66.2,88,30.04,-9999.0,East,15.0,-,N/A,,Unknown,90,2013-08-16 18:00:00
4:30 AM,69.8,66.2,88,30.04,-9999.0,East,16.1,-,N/A,,Unknown,80,2013-08-16 18:30:00
5:00 AM,69.8,66.2,88,30.04,-9999.0,East,13.8,-,N/A,,Unknown,80,2013-08-16 19:00:00
5:30 AM,69.8,66.2,88,30.04,-9999.0,East,16.1,-,N/A,,Unknown,80,2013-08-16 19:30:00
6:00 AM,69.8,66.2,88,30.04,-9999.0,ENE,16.1,-,N/A,,Unknown,70,2013-08-16 20:00:00
6:30 AM,69.8,66.2,88,30.06,-9999.0,NE,13.8,-,N/A,,Unknown,50,2013-08-16 20:30:00
7:00 AM,69.8,64.4,83,30.06,-9999.0,NE,12.7,-,N/A,,Unknown,50,2013-08-16 21:00:00
7:30 AM,71.6,66.2,83,30.06,-9999.0,ENE,13.8,-,N/A,,Unknown,60,2013-08-16 21:30:00
8:00 AM,71.6,66.2,83,30.06,-9999.0,ENE,10.4,-,N/A,,Unknown,60,2013-08-16 22:00:00
8:30 AM,71.6,64.4,78,30.09,-9999.0,ENE,10.4,-,N/A,,Unknown,60,2013-08-16 22:30:00
9:00 AM,73,66,72,30.10,,NE,12.7,,,,,50,2013-08-16 23:00:00
9:00 AM,73.4,66.2,78,30.09,-9999.0,NE,12.7,-,N/A,,Unknown,50,2013-08-16 23:00:00
9:30 AM,77.0,66.2,69,30.09,-9999.0,NE,12.7,-,N/A,,Unknown,50,2013-08-16 23:30:00
10:00 AM,77.0,64.4,65,30.09,-9999.0,NE,12.7,-,N/A,,Unknown,40,2013-08-17 00:00:00
10:30 AM,78.8,66.2,65,30.09,-9999.0,NNE,10.4,-,N/A,,Unknown,30,2013-08-17 00:30:00
11:00 AM,77.0,62.6,61,30.06,-9999.0,NNE,10.4,-,N/A,,Unknown,30,2013-08-17 01:00:00
11:30 AM,77.0,66.2,69,30.06,-9999.0,East,12.7,-,N/A,,Unknown,100,2013-08-17 01:30:00
12:00 PM,75,65,65,30.06,,East,13.8,,,,,100,2013-08-17 02:00:00
12:00 PM,75.2,66.2,73,30.04,-9999.0,East,13.8,-,N/A,,Unknown,90,2013-08-17 02:00:00
12:30 PM,73.4,64.4,73,30.04,-9999.0,East,13.8,-,N/A,,Unknown,90,2013-08-17 02:30:00
1:00 PM,73.4,64.4,73,30.04,-9999.0,East,12.7,-,N/A,,Unknown,90,2013-08-17 03:00:00
1:30 PM,75.2,64.4,69,30.01,-9999.0,East,12.7,-,N/A,,Unknown,90,2013-08-17 03:30:00
2:00 PM,73.4,64.4,73,30.01,-9999.0,East,13.8,-,N/A,,Unknown,90,2013-08-17 04:00:00
2:30 PM,73.4,64.4,73,30.01,-9999.0,East,12.7,-,N/A,,Unknown,90,2013-08-17 04:30:00
3:00 PM,75,65,62,30.01,,ENE,11.5,,,,,60,2013-08-17 05:00:00
3:00 PM,75.2,64.4,69,30.01,-9999.0,ENE,11.5,-,N/A,,Unknown,60,2013-08-17 05:00:00
3:30 PM,75.2,64.4,69,30.01,-9999.0,NE,11.5,-,N/A,,Unknown,50,2013-08-17 05:30:00
4:00 PM,75.2,64.4,69,30.01,-9999.0,NE,10.4,-,N/A,,Unknown,40,2013-08-17 06:00:00
4:30 PM,73.4,64.4,73,30.01,-9999.0,NE,10.4,-,N/A,,Unknown,40,2013-08-17 06:30:00
5:00 PM,73.4,64.4,73,30.01,-9999.0,NNE,10.4,-,N/A,,Unknown,30,2013-08-17 07:00:00
5:30 PM,71.6,64.4,78,30.01,-9999.0,NNE,10.4,-,N/A,,Unknown,30,2013-08-17 07:30:00
6:00 PM,71,64,71,30.03,,NE,11.5,,,,,40,2013-08-17 08:00:00
6:00 PM,71.6,64.4,78,30.01,-9999.0,NNE,11.5,-,N/A,,Unknown,30,2013-08-17 08:00:00
6:30 PM,69.8,64.4,83,30.04,-9999.0,NE,8.1,-,N/A,,Unknown,40,2013-08-17 08:30:00
7:00 PM,69.8,64.4,83,30.04,-9999.0,NE,8.1,-,N/A,,Unknown,50,2013-08-17 09:00:00
7:30 PM,69.8,64.4,83,30.06,-9999.0,NE,6.9,-,N/A,,Unknown,50,2013-08-17 09:30:00
8:00 PM,69.8,64.4,83,30.06,-9999.0,NE,8.1,-,N/A,,Unknown,40,2013-08-17 10:00:00
8:30 PM,69.8,64.4,83,30.06,-9999.0,NE,8.1,-,N/A,,Unknown,50,2013-08-17 10:30:00
9:00 PM,69,64,79,30.08,,NE,10.4,,,,,50,2013-08-17 11:00:00
9:00 PM,69.8,64.4,83,30.06,-9999.0,NE,10.4,-,N/A,,Unknown,50,2013-08-17 11:00:00
9:30 PM,69.8,64.4,83,30.06,-9999.0,NE,8.1,-,N/A,,Unknown,40,2013-08-17 11:30:00
10:00 PM,68.0,64.4,88,30.06,-9999.0,NE,6.9,-,N/A,,Unknown,40,2013-08-17 12:00:00
10:30 PM,68.0,64.4,88,30.06,-9999.0,NNE,5.8,-,N/A,,Unknown,30,2013-08-17 12:30:00
11:00 PM,68.0,64.4,88,30.06,-9999.0,North,4.6,-,N/A,,Unknown,10,2013-08-17 13:00:00
11:30 PM,68.0,64.4,88,30.06,-9999.0,North,4.6,-,N/A,,Unknown,10,2013-08-17 13:30:00